Main page
METAR-TAF:

METAR-TAF

Airports :

Barkley Regional Airport

Paducah, Kentucky, United States

latitude: 37-03-23N, longitude: 088-46-26W, elevation: 410 ft

Current weather observation

The report was made 17 minutes ago, at 03:53 UTC
Wind 5 mph from variable directions
Temperature 75°F
Humidity 50%
Pressure 30.00 in. Hg
Visibility: 10 miles
Clear sky

METAR: KPAH 030353Z VRB04KT 10SM CLR 24/13 A3000 RMK AO2 SLP154 T02440128

Time: 23:10 (04:10 UTC)

Forecast

The report was made 4 hours and 50 minutes ago, at 23:20 UTC
Forecast valid from 03 at 00 UTC to 03 at 24 UTC
Wind 5 mph from the Southwest
Visibility: 6 miles
Few clouds at a height of 25000 ft
From 03 at 1800 UTC
Wind 8 mph from the West/Southwest
Visibility: 6 miles
Scattered clouds at a height of 25000 ft
From 03 at 2100 UTC
Wind 8 mph from the Southwest
Visibility: 6 miles
Broken clouds at a height of 25000 ft

TAF: KPAH 022320Z 0300/0324 23004KT P6SM FEW250 FM031800 24007KT P6SM SCT250 FM032100 22007KT P6SM BKN250

Weather observations and forecasts of more than 4000 airports (METAR and TAF reports).

The available stations are represented by yellow and red dots on the map.

Hover mouse over dot to see the name of the station.

Then click to see weather observations and forecasts.

To change the map : click on the green buttons with a black cross to zoom in, on the green button with a dash to zoom out, or on the green arrows for adjacent maps.


METAR-TAF: